createdAt,value
2022-10-17T05:40:22.692Z,5.10
2022-10-17T05:42:51.078Z,4.90
2022-10-17T05:45:18.677Z,5.60
2022-10-17T05:47:46.266Z,5.30
2022-10-17T05:50:13.144Z,4.70
2022-10-17T05:52:58.627Z,4.50
2022-10-17T05:55:25.489Z,4.80
2022-10-17T05:57:53.980Z,4.20
2022-10-17T06:00:22.348Z,4.10
2022-10-17T06:02:54.209Z,4.10
2022-10-17T06:05:22.504Z,4.30
2022-10-17T06:07:52.469Z,4.00
2022-10-17T06:10:19.830Z,3.60
2022-10-17T06:12:46.728Z,3.50
2022-10-17T06:15:14.530Z,3.70
2022-10-17T06:17:44.276Z,4.20
2022-10-17T06:20:11.426Z,3.70
2022-10-17T06:22:39.466Z,3.60
2022-10-17T06:25:11.926Z,3.20
2022-10-17T06:27:39.268Z,3.80
2022-10-17T10:12:40.987Z,2.70
2022-10-17T10:15:37.825Z,3.00
2022-10-17T10:18:24.614Z,3.20
2022-10-17T10:21:12.394Z,2.00
2022-10-17T10:24:04.530Z,2.70
2022-10-17T10:26:44.954Z,3.10
2022-10-17T10:29:23.784Z,2.70
2022-10-17T10:31:52.239Z,2.30
2022-10-17T10:34:31.370Z,2.90
2022-10-17T10:37:16.191Z,2.30
2022-10-17T10:39:58.343Z,2.30
2022-10-17T10:42:32.596Z,2.60
2022-10-17T10:45:42.946Z,3.00
2022-10-17T10:48:23.235Z,2.10
2022-10-17T10:50:57.526Z,2.90
2022-10-17T10:53:59.158Z,2.90
2022-10-17T10:56:49.788Z,2.90
2022-10-17T10:59:42.998Z,2.70
2022-10-17T11:02:32.594Z,3.00
2022-10-17T11:05:19.108Z,3.10
2022-10-17T11:08:07.878Z,2.50
2022-10-17T11:10:44.492Z,2.30
2022-10-17T11:13:42.586Z,3.00
2022-10-17T11:16:23.452Z,2.40
2022-10-17T11:19:23.833Z,2.50
2022-10-17T11:22:12.698Z,3.10
2022-10-17T11:25:36.764Z,2.60
2022-10-17T11:28:14.503Z,2.40
2022-10-17T11:30:52.505Z,2.20
2022-10-17T11:33:46.884Z,2.70
2022-10-17T11:36:19.113Z,2.70
2022-10-17T11:39:15.147Z,2.30
2022-10-17T11:41:49.868Z,2.70
2022-10-17T11:44:36.120Z,2.30
2022-10-17T11:47:30.083Z,2.70
2022-10-17T11:53:04.458Z,2.80
2022-10-17T11:55:33.532Z,3.10
2022-10-17T11:58:19.747Z,2.80
2022-10-17T12:01:38.855Z,2.60
2022-10-17T12:04:20.055Z,2.50
2022-10-17T12:07:02.227Z,3.00
2022-10-17T12:09:59.411Z,3.10
2022-10-17T12:12:30.845Z,2.90
2022-10-17T12:15:13.629Z,2.90
2022-10-17T12:17:55.257Z,3.10
2022-10-17T12:20:24.705Z,3.00
2022-10-17T12:23:10.751Z,2.20
2022-10-17T12:26:04.778Z,2.80
2022-10-17T12:28:33.532Z,2.80
2022-10-17T12:31:08.702Z,2.70
2022-10-17T12:33:59.799Z,3.00
2022-10-17T12:36:26.365Z,2.40
2022-10-17T12:39:01.848Z,2.70
2022-10-17T12:41:43.916Z,3.00
2022-10-17T12:44:14.032Z,3.20
2022-10-17T12:46:57.568Z,3.50
2022-10-17T12:49:51.997Z,3.20
2022-10-17T12:52:31.826Z,2.60
2022-10-17T12:55:13.510Z,2.70
2022-10-17T12:58:01.995Z,3.30
2022-10-17T13:01:05.123Z,2.60
2022-10-17T13:03:43.370Z,2.50
2022-10-17T13:06:27.514Z,2.60
2022-10-17T13:09:07.694Z,3.20
2022-10-17T13:11:38.730Z,2.70
2022-10-17T13:14:13.761Z,2.70
2022-10-17T13:16:59.645Z,3.10
2022-10-17T13:19:31.953Z,3.00
2022-10-17T13:22:06.408Z,2.90
2022-10-17T13:24:37.687Z,2.70
2022-10-17T13:27:21.041Z,2.60
2022-10-17T13:29:47.738Z,3.10
2022-10-17T13:32:14.478Z,3.30
2022-10-17T13:34:41.149Z,3.30
2022-10-17T13:37:15.340Z,3.80
2022-10-17T13:40:17.655Z,3.50
2022-10-17T13:42:41.726Z,4.60
2022-10-17T13:45:20.850Z,3.40
2022-10-17T13:47:48.102Z,3.40
2022-10-17T13:50:51.410Z,4.00
2022-10-17T13:53:27.683Z,2.90
2022-10-17T13:56:22.848Z,3.50
2022-10-17T13:58:51.535Z,2.90
2022-10-17T14:01:21.023Z,4.50
2022-10-17T14:03:57.084Z,3.50
2022-10-17T14:08:11.853Z,3.60
2022-10-17T14:10:43.264Z,3.40
2022-10-17T14:13:24.557Z,2.40
2022-10-17T14:15:54.531Z,4.00
2022-10-17T14:18:35.712Z,3.50
2022-10-17T14:21:40.616Z,3.20
2022-10-17T14:24:12.836Z,3.30
2022-10-17T14:26:55.507Z,3.40
2022-10-17T14:29:51.031Z,3.70
2022-10-17T14:32:18.313Z,4.20
2022-10-17T14:34:46.588Z,3.70
2022-10-17T14:37:39.506Z,3.40
2022-10-17T14:40:07.678Z,2.90
2022-10-17T14:42:40.394Z,3.30
2022-10-17T14:45:23.475Z,2.70
2022-10-17T14:47:53.003Z,3.20
2022-10-17T14:50:27.563Z,3.70
2022-10-17T14:53:21.519Z,3.80
2022-10-17T14:56:01.594Z,3.00
2022-10-17T14:58:32.964Z,3.20
2022-10-17T15:01:02.197Z,3.30
2022-10-17T15:03:28.932Z,3.50
2022-10-17T15:05:56.487Z,4.20
2022-10-17T15:08:24.489Z,3.20
2022-10-17T15:10:51.975Z,3.20
2022-10-17T15:13:28.251Z,3.00
2022-10-17T15:15:56.291Z,3.20
2022-10-17T15:18:22.922Z,3.00
2022-10-17T15:20:55.396Z,3.30
2022-10-17T15:23:31.650Z,3.70
2022-10-17T15:25:58.349Z,2.80
2022-10-17T15:28:25.083Z,2.60
2022-10-17T15:30:51.818Z,2.50
2022-10-17T15:33:18.482Z,2.60
2022-10-17T15:35:52.256Z,2.90
2022-10-17T15:38:18.962Z,3.20
2022-10-17T15:40:48.847Z,3.00
2022-10-17T15:43:19.696Z,2.30
2022-10-17T15:45:47.438Z,3.10
2022-10-17T15:48:29.439Z,2.90
2022-10-17T15:50:56.300Z,2.70
2022-10-17T15:53:23.960Z,2.80
2022-10-17T15:55:51.075Z,3.30
2022-10-17T15:58:19.322Z,2.40
2022-10-17T16:00:46.803Z,2.90
2022-10-17T16:03:14.347Z,2.70
2022-10-17T16:05:41.215Z,2.70
2022-10-17T16:08:07.794Z,2.60
2022-10-17T16:10:38.807Z,2.60
2022-10-17T16:13:05.558Z,3.40
2022-10-17T16:15:32.514Z,3.30
2022-10-17T16:18:01.665Z,3.40
2022-10-17T16:20:32.024Z,3.70
2022-10-17T16:23:02.286Z,3.60
2022-10-17T16:25:31.626Z,3.30
2022-10-17T16:28:00.862Z,3.10
2022-10-17T16:30:30.936Z,3.60
2022-10-17T16:32:57.720Z,3.30
2022-10-17T16:35:33.102Z,3.60
2022-10-17T16:38:04.666Z,3.80
2022-10-17T16:40:31.508Z,4.00
2022-10-17T16:42:58.389Z,3.40
2022-10-17T16:45:25.196Z,3.60
2022-10-17T16:47:53.034Z,3.30
2022-10-17T16:50:20.090Z,3.00
2022-10-17T16:52:47.885Z,3.70
2022-10-17T16:55:15.810Z,3.60
2022-10-17T17:00:17.117Z,3.30
2022-10-17T17:02:44.769Z,3.00
2022-10-17T17:05:11.991Z,3.50
2022-10-17T17:07:39.627Z,3.60
2022-10-17T17:10:07.292Z,3.20
2022-10-17T17:12:35.907Z,4.20
2022-10-17T17:15:04.033Z,4.00
2022-10-17T17:17:48.395Z,3.50
2022-10-17T17:20:17.189Z,3.20
2022-10-17T17:22:43.841Z,3.90
2022-10-17T17:25:10.509Z,3.20
2022-10-17T17:27:37.159Z,3.70
2022-10-17T17:30:04.216Z,3.10
2022-10-17T17:32:32.465Z,3.10
2022-10-17T17:34:59.083Z,3.50
2022-10-17T17:37:26.098Z,2.70
2022-10-17T17:39:52.806Z,2.90
2022-10-17T17:42:19.864Z,3.30
2022-10-17T17:44:48.510Z,3.00
2022-10-17T17:47:15.213Z,2.70
2022-10-17T17:49:41.873Z,2.60
2022-10-17T17:52:08.633Z,3.40
2022-10-17T17:54:38.550Z,2.70
2022-10-17T17:57:07.602Z,2.60
2022-10-17T17:59:34.373Z,2.80
2022-10-17T18:02:02.868Z,3.50
2022-10-17T18:04:29.629Z,3.30
2022-10-17T18:06:56.272Z,2.90
2022-10-17T18:09:23.652Z,3.60
2022-10-17T18:11:50.397Z,3.20
2022-10-17T18:14:19.055Z,3.70
2022-10-17T18:16:45.734Z,3.50
2022-10-17T18:19:12.446Z,3.50
2022-10-17T18:21:39.199Z,3.10
2022-10-17T18:24:06.951Z,3.50
2022-10-17T18:26:34.284Z,3.40
2022-10-17T18:29:01.181Z,3.60
2022-10-17T18:31:35.618Z,4.30
2022-10-17T18:34:04.501Z,3.90
2022-10-17T18:36:33.934Z,3.40
2022-10-17T18:39:02.075Z,3.50
2022-10-17T18:41:29.469Z,3.60
2022-10-17T18:43:57.196Z,3.60
2022-10-17T18:46:28.483Z,3.30
2022-10-17T18:48:55.740Z,3.90
2022-10-17T18:51:25.463Z,3.80
2022-10-17T18:53:55.783Z,3.90
2022-10-17T18:56:24.167Z,3.50
2022-10-17T18:58:51.744Z,3.90
2022-10-17T19:01:22.507Z,3.90
2022-10-17T19:03:52.104Z,4.00
2022-10-17T19:06:22.808Z,3.80
2022-10-17T19:08:50.000Z,3.90
2022-10-17T19:11:23.826Z,3.90
2022-10-17T19:13:52.879Z,3.80
2022-10-17T19:16:35.763Z,3.60
2022-10-17T19:19:18.148Z,3.90
2022-10-17T19:21:45.040Z,4.60
2022-10-17T19:24:17.230Z,4.00
2022-10-17T19:26:46.448Z,4.80
2022-10-17T19:29:16.073Z,4.00
2022-10-17T19:31:44.531Z,3.90
2022-10-17T19:34:13.737Z,4.00
2022-10-17T19:36:41.792Z,3.40
2022-10-17T19:39:20.864Z,3.90
2022-10-17T19:41:48.998Z,3.90
2022-10-17T19:44:16.520Z,3.70
2022-10-17T19:46:46.612Z,3.60
2022-10-17T19:49:14.721Z,3.70
2022-10-17T19:51:42.168Z,3.70
2022-10-17T19:54:10.172Z,3.90
2022-10-17T19:56:43.078Z,4.30
2022-10-17T19:59:14.300Z,4.20
2022-10-17T20:01:41.640Z,4.00
2022-10-17T20:04:11.093Z,3.00
2022-10-17T20:06:39.169Z,3.80
2022-10-17T20:09:09.787Z,4.20
2022-10-17T20:11:39.104Z,4.40
2022-10-17T20:14:06.745Z,4.70
2022-10-17T20:16:36.781Z,3.80
2022-10-17T20:19:11.761Z,3.70
2022-10-17T20:21:39.778Z,3.80
2022-10-17T20:24:11.282Z,4.20
2022-10-17T20:26:39.370Z,4.10
2022-10-17T20:29:20.987Z,3.70
2022-10-17T20:31:48.731Z,3.60
2022-10-17T20:34:18.192Z,3.20
2022-10-17T20:36:45.808Z,3.00
2022-10-17T20:39:15.216Z,2.90
2022-10-17T20:41:42.636Z,2.10
2022-10-17T20:44:09.786Z,2.30
2022-10-17T20:46:44.312Z,2.40
2022-10-17T20:49:18.865Z,2.40
2022-10-17T20:51:46.152Z,2.10
2022-10-17T20:54:13.175Z,2.00
2022-10-17T20:56:40.061Z,2.10
2022-10-17T20:59:12.679Z,2.00
2022-10-17T21:01:39.637Z,2.10
2022-10-17T21:04:33.168Z,2.30
2022-10-17T21:06:53.558Z,1.70
2022-10-17T21:09:21.746Z,2.10
2022-10-17T21:11:51.355Z,2.20
2022-10-17T21:14:18.785Z,1.50
2022-10-17T21:16:45.552Z,1.80
2022-10-17T21:19:13.445Z,2.10
2022-10-17T21:21:43.532Z,2.10
2022-10-17T21:24:14.567Z,1.80
2022-10-17T21:26:43.804Z,2.10
2022-10-17T21:29:13.173Z,1.80
2022-10-17T21:31:43.352Z,2.00
2022-10-17T21:34:18.431Z,2.10
2022-10-17T21:36:45.616Z,1.90
2022-10-17T21:39:14.062Z,3.00
2022-10-17T21:41:41.805Z,3.10
2022-10-17T21:44:17.592Z,2.70
2022-10-17T21:46:45.159Z,2.30
2022-10-17T21:49:14.538Z,2.10
2022-10-17T21:51:42.184Z,2.50
2022-10-17T21:54:08.909Z,2.80
2022-10-17T21:56:36.448Z,2.60
2022-10-17T21:59:04.840Z,2.50
2022-10-17T22:01:36.126Z,4.10
2022-10-17T22:04:06.544Z,3.20
2022-10-17T22:06:40.259Z,2.70
2022-10-17T22:09:14.779Z,2.00
2022-10-17T22:11:43.805Z,2.20
2022-10-17T22:14:16.111Z,2.30
2022-10-17T22:16:45.112Z,2.10
2022-10-17T22:19:15.300Z,2.50
2022-10-17T22:21:42.376Z,2.50
2022-10-17T22:24:13.207Z,2.60
2022-10-17T22:26:40.635Z,2.90
2022-10-17T22:29:08.852Z,2.80
2022-10-17T22:31:37.470Z,2.70
2022-10-17T22:34:05.874Z,2.90
2022-10-17T22:36:34.266Z,2.80
2022-10-17T22:39:01.084Z,3.00
2022-10-17T22:41:27.766Z,2.60
2022-10-17T22:43:54.494Z,2.90
2022-10-17T22:46:21.171Z,2.60
2022-10-17T22:48:47.840Z,2.70
2022-10-17T22:51:14.635Z,2.80
2022-10-17T22:53:41.452Z,3.20
2022-10-17T22:56:14.356Z,2.60
2022-10-17T22:58:41.401Z,2.60
2022-10-17T23:01:14.425Z,2.40
2022-10-17T23:03:41.507Z,2.50
2022-10-17T23:06:08.424Z,2.20
2022-10-17T23:08:35.507Z,2.80
2022-10-17T23:11:02.552Z,2.80
2022-10-17T23:13:29.233Z,3.00
2022-10-17T23:15:57.856Z,2.60
2022-10-17T23:18:26.877Z,2.90
2022-10-17T23:20:54.283Z,2.70
2022-10-17T23:23:21.713Z,2.60
2022-10-17T23:25:49.385Z,2.50
2022-10-17T23:28:17.268Z,2.60
2022-10-17T23:30:44.543Z,2.40
2022-10-17T23:33:13.460Z,2.70
2022-10-17T23:35:40.902Z,2.60
2022-10-17T23:38:08.245Z,2.60
2022-10-17T23:40:35.500Z,2.90
2022-10-17T23:43:03.617Z,3.00
2022-10-17T23:45:34.673Z,2.70
2022-10-17T23:48:05.207Z,2.80
2022-10-17T23:50:31.947Z,3.20
2022-10-17T23:52:58.678Z,3.50
2022-10-17T23:55:25.298Z,3.00
2022-10-17T23:57:51.957Z,2.90
